createdAt,value
2016-10-22T00:00:53.787Z,0
2016-10-22T00:02:04.488Z,0
2016-10-22T00:03:15.178Z,0
2016-10-22T00:04:25.898Z,0
2016-10-22T00:05:36.628Z,0
2016-10-22T00:06:47.336Z,0
2016-10-22T00:07:58.030Z,0
2016-10-22T00:09:08.766Z,0
2016-10-22T00:10:19.456Z,0
2016-10-22T00:11:30.148Z,0
2016-10-22T00:12:40.871Z,0
2016-10-22T00:13:51.570Z,0
2016-10-22T00:15:02.253Z,0
2016-10-22T00:16:12.940Z,0
2016-10-22T00:17:23.670Z,0
2016-10-22T00:18:34.429Z,0
2016-10-22T00:19:45.130Z,0
2016-10-22T00:20:55.835Z,0
2016-10-22T00:22:06.549Z,0
2016-10-22T00:23:17.239Z,0
2016-10-22T00:24:27.947Z,0
2016-10-22T00:25:38.647Z,0
2016-10-22T00:26:49.359Z,0
2016-10-22T00:28:00.038Z,0
2016-10-22T00:29:10.747Z,0
2016-10-22T00:30:21.474Z,0
2016-10-22T00:31:32.194Z,0
2016-10-22T00:32:42.875Z,0
2016-10-22T00:33:53.597Z,0
2016-10-22T00:35:04.289Z,0
2016-10-22T00:36:15.058Z,0
2016-10-22T00:37:25.737Z,0
2016-10-22T00:38:36.461Z,0
2016-10-22T00:39:47.164Z,0
2016-10-22T00:40:57.855Z,0
2016-10-22T00:42:08.562Z,0
2016-10-22T00:43:19.268Z,0
2016-10-22T00:44:29.966Z,0
2016-10-22T00:45:41.181Z,0
2016-10-22T00:46:51.871Z,0
2016-10-22T00:48:02.584Z,0
2016-10-22T00:49:13.312Z,0
2016-10-22T00:50:24.059Z,0
2016-10-22T00:51:35.287Z,0
2016-10-22T00:53:17.660Z,0
2016-10-22T00:54:28.363Z,0
2016-10-22T00:55:39.084Z,0
2016-10-22T00:56:49.819Z,0
2016-10-22T00:58:00.533Z,0
2016-10-22T00:59:11.313Z,0
2016-10-22T01:00:22.029Z,0
2016-10-22T01:01:32.762Z,0
2016-10-22T01:02:43.463Z,0
2016-10-22T01:03:54.151Z,0
2016-10-22T01:05:04.886Z,0
2016-10-22T01:06:15.593Z,0
2016-10-22T01:07:26.323Z,0
2016-10-22T01:08:37.022Z,0
2016-10-22T01:09:47.723Z,0
2016-10-22T01:10:58.427Z,0
2016-10-22T01:12:09.134Z,0
2016-10-22T01:13:19.832Z,0
2016-10-22T01:14:30.565Z,0
2016-10-22T01:15:41.278Z,0
2016-10-22T01:16:51.978Z,0
2016-10-22T01:18:02.662Z,0
2016-10-22T01:19:13.372Z,0
2016-10-22T01:20:24.065Z,0
2016-10-22T01:21:34.750Z,0
2016-10-22T01:22:45.426Z,0
2016-10-22T01:23:56.145Z,0
2016-10-22T01:25:06.850Z,0
2016-10-22T01:26:17.570Z,0
2016-10-22T01:27:28.296Z,0
2016-10-22T01:28:39.005Z,0
2016-10-22T01:29:49.750Z,0
2016-10-22T01:31:00.482Z,0
2016-10-22T01:32:11.220Z,0
2016-10-22T01:33:21.943Z,0
2016-10-22T01:34:32.663Z,0
2016-10-22T01:35:43.404Z,0
2016-10-22T01:36:54.083Z,0
2016-10-22T01:38:05.260Z,0
2016-10-22T01:39:16.446Z,0
2016-10-22T01:40:27.132Z,0
2016-10-22T01:41:37.850Z,0
2016-10-22T01:42:48.557Z,0
2016-10-22T01:43:59.265Z,0
2016-10-22T01:45:09.989Z,0
2016-10-22T01:46:20.707Z,0
2016-10-22T01:47:31.429Z,0
2016-10-22T01:48:42.142Z,0
2016-10-22T01:49:52.876Z,0
2016-10-22T01:51:03.578Z,0
2016-10-22T01:52:14.268Z,0
2016-10-22T01:53:24.991Z,0
2016-10-22T01:54:35.687Z,0
2016-10-22T01:55:46.416Z,0
2016-10-22T01:56:57.629Z,0
2016-10-22T01:58:08.350Z,0
2016-10-22T01:59:19.049Z,0
2016-10-22T02:00:29.779Z,0
2016-10-22T02:01:40.499Z,0
2016-10-22T02:02:51.720Z,0
2016-10-22T02:04:02.436Z,0
2016-10-22T02:05:13.684Z,0
2016-10-22T02:06:24.414Z,0
2016-10-22T02:07:35.147Z,0
2016-10-22T02:08:45.847Z,0
2016-10-22T02:09:56.586Z,0
2016-10-22T02:11:07.288Z,0
2016-10-22T02:12:18.041Z,0
2016-10-22T02:13:28.733Z,0
2016-10-22T02:14:39.412Z,0
2016-10-22T02:15:50.090Z,0
2016-10-22T02:17:00.795Z,0
2016-10-22T02:18:11.532Z,0
2016-10-22T02:19:22.248Z,0
2016-10-22T02:20:32.978Z,0
2016-10-22T02:21:43.702Z,0
2016-10-22T02:22:54.430Z,0
2016-10-22T02:24:05.134Z,0
2016-10-22T02:25:15.863Z,0
2016-10-22T02:26:27.093Z,0
2016-10-22T02:27:37.808Z,0
2016-10-22T02:28:48.534Z,0
2016-10-22T02:29:59.272Z,0
2016-10-22T02:31:09.984Z,0
2016-10-22T02:32:20.670Z,0
2016-10-22T02:33:31.389Z,0
2016-10-22T02:34:42.101Z,0
2016-10-22T02:35:52.854Z,0
2016-10-22T02:37:03.589Z,0
2016-10-22T02:38:14.818Z,0
2016-10-22T02:39:25.527Z,0
2016-10-22T02:40:36.768Z,0
2016-10-22T02:41:47.529Z,0
2016-10-22T02:42:58.226Z,0
2016-10-22T02:44:08.929Z,0
2016-10-22T02:45:19.654Z,0
2016-10-22T02:46:30.382Z,0
2016-10-22T02:47:41.075Z,0
2016-10-22T02:48:51.796Z,0
2016-10-22T02:50:02.493Z,0
2016-10-22T02:51:13.219Z,0
2016-10-22T02:52:23.935Z,0
2016-10-22T02:53:34.617Z,0
2016-10-22T02:54:45.292Z,0
2016-10-22T02:55:56.054Z,0
2016-10-22T02:57:06.760Z,0
2016-10-22T02:58:17.473Z,0
2016-10-22T02:59:28.163Z,0
2016-10-22T03:00:39.419Z,0
2016-10-22T03:01:50.121Z,0
2016-10-22T03:03:00.837Z,0
2016-10-22T03:04:11.520Z,0
2016-10-22T03:05:22.218Z,0
2016-10-22T03:06:32.961Z,0
2016-10-22T03:07:43.670Z,0
2016-10-22T03:08:54.901Z,0
2016-10-22T03:10:05.593Z,0
2016-10-22T03:11:16.274Z,0
2016-10-22T03:12:26.965Z,0
2016-10-22T03:13:37.658Z,0
2016-10-22T03:14:48.363Z,0
2016-10-22T03:15:59.064Z,0
2016-10-22T03:17:09.788Z,0
2016-10-22T03:18:20.481Z,0
2016-10-22T03:19:31.216Z,0
2016-10-22T03:20:42.008Z,0
2016-10-22T03:21:52.743Z,0
2016-10-22T03:23:03.458Z,0
2016-10-22T03:24:14.156Z,0
2016-10-22T03:25:25.012Z,0
2016-10-22T03:26:35.721Z,0
2016-10-22T03:27:46.430Z,0
2016-10-22T03:28:57.148Z,0
2016-10-22T03:30:08.344Z,0
2016-10-22T03:31:19.575Z,0
2016-10-22T03:32:30.285Z,0
2016-10-22T03:33:41.577Z,0
2016-10-22T03:34:53.846Z,0
2016-10-22T03:36:04.580Z,0
2016-10-22T03:37:16.362Z,0
2016-10-22T03:38:27.071Z,0
2016-10-22T03:39:37.770Z,0
2016-10-22T03:40:48.462Z,0
2016-10-22T03:41:59.175Z,0
2016-10-22T03:43:09.891Z,0
2016-10-22T03:44:21.117Z,0
2016-10-22T03:45:31.796Z,0
2016-10-22T03:46:42.530Z,0
2016-10-22T03:47:54.268Z,0
2016-10-22T03:49:06.054Z,0
2016-10-22T03:50:17.767Z,0
2016-10-22T03:51:30.013Z,0
2016-10-22T03:52:40.729Z,0
2016-10-22T03:53:51.435Z,0
2016-10-22T03:55:02.191Z,0
2016-10-22T03:56:12.909Z,0
2016-10-22T03:57:23.625Z,0
2016-10-22T03:58:34.331Z,0
2016-10-22T03:59:45.540Z,0
2016-10-22T04:00:56.245Z,0
2016-10-22T04:02:06.983Z,0
2016-10-22T04:03:17.699Z,0
2016-10-22T04:04:28.939Z,0
2016-10-22T04:05:40.178Z,0
2016-10-22T04:06:50.880Z,0
2016-10-22T04:08:01.598Z,0
2016-10-22T04:09:12.828Z,0
2016-10-22T04:10:23.563Z,0
2016-10-22T04:11:34.322Z,0
2016-10-22T04:12:45.546Z,0
2016-10-22T04:13:56.782Z,0
2016-10-22T04:15:07.497Z,0
2016-10-22T04:16:18.726Z,0
2016-10-22T04:17:29.966Z,0
2016-10-22T04:18:40.688Z,0
2016-10-22T04:19:51.909Z,0
2016-10-22T04:21:02.633Z,0
2016-10-22T04:22:13.355Z,0
2016-10-22T04:23:24.042Z,0
2016-10-22T04:24:34.772Z,0
2016-10-22T04:25:45.473Z,0
2016-10-22T04:26:56.205Z,0
2016-10-22T04:28:06.890Z,0
2016-10-22T04:29:18.120Z,0
2016-10-22T04:30:28.835Z,0
2016-10-22T04:31:39.551Z,0
2016-10-22T04:32:50.833Z,0
2016-10-22T04:34:01.508Z,0
2016-10-22T04:35:12.210Z,0
2016-10-22T04:36:23.417Z,0
2016-10-22T04:37:34.142Z,0
2016-10-22T04:38:44.838Z,0
2016-10-22T04:39:55.560Z,0
2016-10-22T04:41:07.308Z,0
2016-10-22T04:42:18.518Z,0
2016-10-22T04:43:29.214Z,0
2016-10-22T04:44:39.884Z,0
2016-10-22T04:45:51.105Z,0
2016-10-22T04:47:01.837Z,0
2016-10-22T04:48:13.055Z,0
2016-10-22T04:49:23.761Z,0
2016-10-22T04:50:34.508Z,0
2016-10-22T04:51:45.207Z,0
2016-10-22T04:52:56.458Z,0
2016-10-22T04:54:07.677Z,0
2016-10-22T04:55:18.408Z,0
2016-10-22T04:56:29.091Z,0
2016-10-22T04:57:39.802Z,0
2016-10-22T04:58:51.001Z,0
2016-10-22T05:00:01.736Z,0
2016-10-22T05:01:12.407Z,0
2016-10-22T05:02:23.683Z,0
2016-10-22T05:03:34.397Z,0
2016-10-22T05:04:45.090Z,0
2016-10-22T05:05:56.322Z,0
2016-10-22T05:07:07.038Z,0
2016-10-22T05:08:17.738Z,0
2016-10-22T05:09:29.003Z,0
2016-10-22T05:10:39.723Z,0
2016-10-22T05:11:50.430Z,0
2016-10-22T05:13:01.116Z,0
2016-10-22T05:14:11.801Z,0
2016-10-22T05:15:22.513Z,0
2016-10-22T05:16:33.233Z,0
2016-10-22T05:17:44.470Z,0
2016-10-22T05:18:55.150Z,0
2016-10-22T05:20:05.839Z,0
2016-10-22T05:21:16.524Z,0
2016-10-22T05:22:27.210Z,0
2016-10-22T05:23:37.924Z,0
2016-10-22T05:24:48.654Z,0
2016-10-22T05:25:59.356Z,0
2016-10-22T05:27:10.043Z,0
2016-10-22T05:28:20.741Z,0
2016-10-22T05:29:31.490Z,0
2016-10-22T05:30:42.194Z,0
2016-10-22T05:31:52.910Z,0
2016-10-22T05:33:03.592Z,0
2016-10-22T05:34:14.294Z,0
2016-10-22T05:35:25.013Z,0
2016-10-22T05:36:35.742Z,0
2016-10-22T05:37:46.480Z,0
2016-10-22T05:38:57.199Z,0
2016-10-22T05:40:07.942Z,0
2016-10-22T05:41:18.631Z,0
2016-10-22T05:42:29.411Z,0
2016-10-22T05:43:40.168Z,0
2016-10-22T05:44:50.880Z,0
2016-10-22T05:46:01.614Z,0
2016-10-22T05:47:12.353Z,0
2016-10-22T05:48:23.057Z,0
2016-10-22T05:49:33.737Z,0
2016-10-22T05:50:44.473Z,0
2016-10-22T05:51:55.183Z,0
2016-10-22T05:53:05.882Z,0
2016-10-22T05:54:16.572Z,0
2016-10-22T05:55:27.263Z,0
2016-10-22T05:56:37.964Z,0
2016-10-22T05:57:48.674Z,0
2016-10-22T05:58:59.359Z,0
2016-10-22T06:00:10.059Z,0
2016-10-22T06:01:20.797Z,0
2016-10-22T06:02:31.532Z,0
2016-10-22T06:03:42.412Z,0
2016-10-22T06:04:53.893Z,0
2016-10-22T06:06:04.600Z,0
2016-10-22T06:07:15.314Z,0
2016-10-22T06:08:26.036Z,0
2016-10-22T06:09:36.730Z,0
2016-10-22T06:10:47.729Z,0
2016-10-22T06:11:58.450Z,0
2016-10-22T06:13:09.204Z,0
2016-10-22T06:14:19.897Z,0
2016-10-22T06:15:30.602Z,0
2016-10-22T06:16:41.311Z,0
2016-10-22T06:17:52.028Z,0
2016-10-22T06:19:02.786Z,0
2016-10-22T06:20:13.515Z,0
2016-10-22T06:21:24.289Z,0
2016-10-22T06:22:35.012Z,0
2016-10-22T06:23:45.747Z,0
2016-10-22T06:24:56.460Z,0
2016-10-22T06:26:07.168Z,0
2016-10-22T06:27:17.878Z,0
2016-10-22T06:28:28.575Z,0
2016-10-22T06:29:39.329Z,0
2016-10-22T06:30:50.079Z,0
2016-10-22T06:32:00.794Z,0
2016-10-22T06:33:11.497Z,0
2016-10-22T06:34:22.208Z,0
2016-10-22T06:35:32.929Z,0
2016-10-22T06:36:43.656Z,0
2016-10-22T06:37:54.373Z,0
2016-10-22T06:39:05.092Z,0
2016-10-22T06:40:15.771Z,0
2016-10-22T06:41:26.466Z,0
2016-10-22T06:42:37.175Z,0
2016-10-22T06:43:47.872Z,0
2016-10-22T06:44:58.576Z,0
2016-10-22T06:46:09.280Z,0
2016-10-22T06:47:19.975Z,0
2016-10-22T06:48:30.709Z,0
2016-10-22T06:49:41.416Z,0
2016-10-22T06:50:52.127Z,0
2016-10-22T06:52:02.843Z,0
2016-10-22T06:53:13.551Z,0
2016-10-22T06:54:24.263Z,0
2016-10-22T06:55:34.991Z,0
2016-10-22T06:56:45.695Z,0
2016-10-22T06:57:56.409Z,0
2016-10-22T06:59:07.129Z,0
2016-10-22T07:00:17.877Z,0
2016-10-22T07:01:28.617Z,0
2016-10-22T07:02:39.831Z,0
2016-10-22T07:03:50.571Z,0
2016-10-22T07:05:01.296Z,0
2016-10-22T07:06:11.987Z,0
2016-10-22T07:07:22.673Z,0
2016-10-22T07:08:33.369Z,0
2016-10-22T07:09:44.063Z,0
2016-10-22T07:10:54.783Z,0
2016-10-22T07:12:05.489Z,0
2016-10-22T07:13:16.207Z,0
2016-10-22T07:14:26.893Z,0
2016-10-22T07:15:37.632Z,0
2016-10-22T07:16:48.385Z,0
2016-10-22T07:17:59.079Z,0
2016-10-22T07:19:09.763Z,0
2016-10-22T07:20:20.488Z,0
2016-10-22T07:21:31.193Z,0
2016-10-22T07:22:41.891Z,0
2016-10-22T07:23:52.594Z,0
2016-10-22T07:25:03.342Z,0
2016-10-22T07:26:14.077Z,0
2016-10-22T07:27:24.796Z,0
2016-10-22T07:28:35.510Z,0
2016-10-22T07:29:46.218Z,0
2016-10-22T07:30:56.938Z,0
2016-10-22T07:32:08.178Z,0
2016-10-22T07:33:18.851Z,0
2016-10-22T07:34:29.592Z,0
2016-10-22T07:35:40.313Z,0
2016-10-22T07:36:51.016Z,0
2016-10-22T07:38:01.710Z,0
2016-10-22T07:39:12.402Z,0
2016-10-22T07:40:23.090Z,0
2016-10-22T07:41:34.386Z,0
2016-10-22T07:42:45.088Z,0
2016-10-22T07:43:55.780Z,0
2016-10-22T07:45:06.483Z,0
2016-10-22T07:46:17.187Z,0
2016-10-22T07:47:27.879Z,0
2016-10-22T07:48:38.581Z,0
2016-10-22T07:49:49.290Z,0
2016-10-22T07:50:59.989Z,0
2016-10-22T07:52:10.724Z,0
2016-10-22T07:53:21.436Z,0
2016-10-22T07:54:32.193Z,0
2016-10-22T07:55:42.905Z,0
2016-10-22T07:56:53.611Z,0
2016-10-22T07:58:04.319Z,0
2016-10-22T07:59:15.123Z,0
2016-10-22T08:00:25.842Z,0
2016-10-22T08:01:36.579Z,0
2016-10-22T08:02:47.278Z,0
2016-10-22T08:03:57.988Z,0
2016-10-22T08:05:08.687Z,0
2016-10-22T08:06:19.378Z,0
2016-10-22T08:07:30.061Z,0
2016-10-22T08:08:40.784Z,0
2016-10-22T08:09:51.493Z,0
2016-10-22T08:11:02.191Z,0
2016-10-22T08:12:12.909Z,0
2016-10-22T08:13:23.601Z,0
2016-10-22T08:14:34.346Z,0
2016-10-22T08:15:45.079Z,0
2016-10-22T08:16:56.298Z,0
2016-10-22T08:18:07.032Z,0
2016-10-22T08:19:17.765Z,0
2016-10-22T08:20:28.444Z,0
2016-10-22T08:21:39.155Z,0
2016-10-22T08:22:49.881Z,0
2016-10-22T08:24:00.607Z,0
2016-10-22T08:25:11.300Z,0
2016-10-22T08:26:22.002Z,5
2016-10-22T08:27:32.682Z,5
2016-10-22T08:28:43.917Z,5
2016-10-22T08:29:54.600Z,5
2016-10-22T08:31:05.273Z,5
2016-10-22T08:32:15.966Z,5
2016-10-22T08:33:26.689Z,5
2016-10-22T08:34:37.393Z,10
2016-10-22T08:35:48.098Z,10
2016-10-22T08:36:58.808Z,10
2016-10-22T08:38:09.548Z,10
2016-10-22T08:39:20.253Z,10
2016-10-22T08:40:30.944Z,10
2016-10-22T08:41:41.652Z,10
2016-10-22T08:42:52.889Z,15
2016-10-22T08:44:03.620Z,15
2016-10-22T08:45:14.392Z,15
2016-10-22T08:46:25.102Z,20
2016-10-22T08:47:35.840Z,25
2016-10-22T08:48:46.594Z,25
2016-10-22T08:49:57.310Z,30
2016-10-22T08:51:08.028Z,30
2016-10-22T08:52:18.734Z,30
2016-10-22T08:53:29.442Z,30
2016-10-22T08:54:40.148Z,35
2016-10-22T08:55:50.927Z,35
2016-10-22T08:57:01.637Z,45
2016-10-22T08:58:12.333Z,55
2016-10-22T08:59:23.039Z,55
2016-10-22T09:00:33.761Z,50
2016-10-22T09:01:44.465Z,50
2016-10-22T09:02:55.164Z,50
2016-10-22T09:04:05.887Z,50
2016-10-22T09:05:16.604Z,65
2016-10-22T09:06:27.332Z,65
2016-10-22T09:07:38.034Z,65
2016-10-22T09:08:48.759Z,85
2016-10-22T09:09:59.436Z,85
2016-10-22T09:11:10.127Z,85
2016-10-22T09:12:20.835Z,90
2016-10-22T09:13:31.555Z,105
2016-10-22T09:14:42.252Z,130
2016-10-22T09:15:52.963Z,115
2016-10-22T09:17:03.659Z,140
2016-10-22T09:18:14.344Z,120
2016-10-22T09:19:25.053Z,140
2016-10-22T09:20:35.745Z,145
2016-10-22T09:21:46.463Z,185
2016-10-22T09:22:57.182Z,185
2016-10-22T09:24:07.859Z,240
2016-10-22T09:25:18.565Z,230
2016-10-22T09:26:29.274Z,195
2016-10-22T09:27:40.002Z,200
2016-10-22T09:28:50.703Z,185
2016-10-22T09:30:01.398Z,185
2016-10-22T09:31:12.142Z,180
2016-10-22T09:32:22.865Z,215
2016-10-22T09:33:33.564Z,220
2016-10-22T09:34:44.262Z,265
2016-10-22T09:35:54.943Z,255
2016-10-22T09:37:05.906Z,280
2016-10-22T09:38:16.619Z,300
2016-10-22T09:39:27.325Z,285
2016-10-22T09:40:38.024Z,285
2016-10-22T09:41:48.733Z,300
2016-10-22T09:42:59.422Z,290
2016-10-22T09:44:10.135Z,265
2016-10-22T09:45:20.823Z,275
2016-10-22T09:46:31.536Z,320
2016-10-22T09:47:42.226Z,300
2016-10-22T09:48:52.933Z,295
2016-10-22T09:50:03.661Z,290
2016-10-22T09:51:14.878Z,310
2016-10-22T09:52:25.562Z,355
2016-10-22T09:53:36.260Z,425
2016-10-22T09:54:46.962Z,430
2016-10-22T09:55:57.668Z,450
2016-10-22T09:57:08.372Z,440
2016-10-22T09:58:19.066Z,455
2016-10-22T09:59:29.800Z,390
2016-10-22T10:00:40.531Z,430
2016-10-22T10:01:51.232Z,390
2016-10-22T10:03:01.926Z,445
2016-10-22T10:04:13.143Z,435
2016-10-22T10:05:23.970Z,480
2016-10-22T10:06:35.029Z,545
2016-10-22T10:07:45.723Z,480
2016-10-22T10:08:56.927Z,410
2016-10-22T10:10:07.625Z,445
2016-10-22T10:11:18.304Z,425
2016-10-22T10:12:29.034Z,420
2016-10-22T10:13:39.745Z,460
2016-10-22T10:14:50.465Z,460
2016-10-22T10:16:01.179Z,435
2016-10-22T10:17:11.939Z,465
2016-10-22T10:18:22.650Z,555
2016-10-22T10:19:33.378Z,625
2016-10-22T10:20:44.107Z,600
2016-10-22T10:21:54.808Z,515
2016-10-22T10:23:05.532Z,460
2016-10-22T10:24:16.227Z,420
2016-10-22T10:25:26.932Z,425
2016-10-22T10:26:37.620Z,360
2016-10-22T10:27:48.302Z,345
2016-10-22T10:28:59.012Z,335
2016-10-22T10:30:09.731Z,390
2016-10-22T10:31:20.467Z,435
2016-10-22T10:32:31.195Z,405
2016-10-22T10:33:42.381Z,375
2016-10-22T10:34:53.087Z,415
2016-10-22T10:36:03.766Z,395
2016-10-22T10:37:14.476Z,410
2016-10-22T10:38:25.157Z,445
2016-10-22T10:39:35.867Z,495
2016-10-22T10:40:47.082Z,510
2016-10-22T10:41:57.777Z,420
2016-10-22T10:43:08.515Z,385
2016-10-22T10:44:19.218Z,355
2016-10-22T10:45:29.931Z,330
2016-10-22T10:46:41.141Z,385
2016-10-22T10:47:51.825Z,375
2016-10-22T10:49:02.578Z,475
2016-10-22T10:50:13.284Z,555
2016-10-22T10:51:24.029Z,525
2016-10-22T10:52:34.738Z,560
2016-10-22T10:53:45.463Z,550
2016-10-22T10:54:56.213Z,515
2016-10-22T10:56:06.939Z,460
2016-10-22T10:57:17.636Z,590
2016-10-22T10:58:28.329Z,590
2016-10-22T10:59:39.000Z,595
2016-10-22T11:00:49.775Z,475
2016-10-22T11:02:00.517Z,440
2016-10-22T11:03:11.229Z,435
2016-10-22T11:04:21.928Z,400
2016-10-22T11:05:32.652Z,335
2016-10-22T11:06:43.841Z,350
2016-10-22T11:07:54.535Z,395
2016-10-22T11:09:05.284Z,410
2016-10-22T11:10:15.992Z,455
2016-10-22T11:11:26.686Z,485
2016-10-22T11:12:37.923Z,560
2016-10-22T11:13:48.629Z,485
2016-10-22T11:14:59.362Z,415
2016-10-22T11:16:10.077Z,415
2016-10-22T11:17:20.782Z,450
2016-10-22T11:18:31.503Z,430
2016-10-22T11:19:42.216Z,495
2016-10-22T11:20:52.919Z,475
2016-10-22T11:22:03.616Z,435
2016-10-22T11:23:14.340Z,505
2016-10-22T11:24:25.058Z,850
2016-10-22T11:25:35.789Z,980
2016-10-22T11:26:46.497Z,925
2016-10-22T11:27:57.192Z,850
2016-10-22T11:29:07.886Z,760
2016-10-22T11:30:18.591Z,785
2016-10-22T11:31:29.547Z,845
2016-10-22T11:32:40.259Z,750
2016-10-22T11:33:50.974Z,820
2016-10-22T11:35:01.698Z,750
2016-10-22T11:36:12.427Z,655
2016-10-22T11:37:23.107Z,710
2016-10-22T11:38:33.814Z,720
2016-10-22T11:39:44.517Z,805
2016-10-22T11:40:55.218Z,850
2016-10-22T11:42:05.922Z,1100
2016-10-22T11:43:16.616Z,1000
2016-10-22T11:44:27.308Z,900
2016-10-22T11:45:37.998Z,680
2016-10-22T11:46:48.707Z,610
2016-10-22T11:47:59.420Z,685
2016-10-22T11:49:10.113Z,600
2016-10-22T11:50:20.838Z,530
2016-10-22T11:51:31.571Z,615
2016-10-22T11:52:42.270Z,660
2016-10-22T11:53:53.007Z,615
2016-10-22T11:55:03.724Z,570
2016-10-22T11:56:14.417Z,620
2016-10-22T11:57:25.127Z,595
2016-10-22T11:58:35.853Z,560
2016-10-22T11:59:47.087Z,535
2016-10-22T12:00:57.792Z,420
2016-10-22T12:02:08.507Z,430
2016-10-22T12:03:19.242Z,470
2016-10-22T12:04:30.386Z,560
2016-10-22T12:05:41.531Z,465
2016-10-22T12:06:52.695Z,470
2016-10-22T12:08:03.906Z,430
2016-10-22T12:09:15.066Z,390
2016-10-22T12:10:26.206Z,450
2016-10-22T12:11:37.368Z,575
2016-10-22T12:12:48.521Z,455
2016-10-22T12:13:59.678Z,465
2016-10-22T12:15:10.845Z,470
2016-10-22T12:16:21.989Z,635
2016-10-22T12:17:33.154Z,620
2016-10-22T12:18:44.308Z,625
2016-10-22T12:19:55.460Z,785
2016-10-22T12:21:06.619Z,835
2016-10-22T12:22:17.766Z,980
2016-10-22T12:23:28.927Z,965
2016-10-22T12:24:40.070Z,1100
2016-10-22T12:25:51.216Z,770
2016-10-22T12:27:02.358Z,655
2016-10-22T12:28:13.536Z,615
2016-10-22T12:29:24.725Z,800
2016-10-22T12:30:35.891Z,780
2016-10-22T12:31:47.075Z,820
2016-10-22T12:32:58.248Z,915
2016-10-22T12:34:09.430Z,935
2016-10-22T12:35:20.647Z,1040
2016-10-22T12:36:32.422Z,1215
2016-10-22T12:37:43.577Z,1285
2016-10-22T12:38:54.773Z,1515
2016-10-22T12:40:05.919Z,1280
2016-10-22T12:41:17.091Z,1250
2016-10-22T12:42:28.244Z,1440
2016-10-22T12:43:39.401Z,1485
2016-10-22T12:44:50.566Z,1355
2016-10-22T12:46:01.752Z,1265
2016-10-22T12:47:12.924Z,1220
2016-10-22T12:48:24.086Z,1230
2016-10-22T12:49:35.241Z,940
2016-10-22T12:50:46.418Z,755
2016-10-22T12:51:57.562Z,810
2016-10-22T12:53:08.740Z,1025
2016-10-22T12:54:19.899Z,930
2016-10-22T12:55:31.633Z,640
2016-10-22T12:56:42.873Z,570
2016-10-22T12:57:54.039Z,545
2016-10-22T12:59:05.211Z,690
2016-10-22T13:00:16.366Z,790
2016-10-22T13:01:27.523Z,755
2016-10-22T13:02:38.713Z,860
2016-10-22T13:03:49.880Z,1125
2016-10-22T13:05:01.046Z,1395
2016-10-22T13:06:12.229Z,1270
2016-10-22T13:07:23.390Z,915
2016-10-22T13:08:34.578Z,1095
2016-10-22T13:09:45.762Z,1050
2016-10-22T13:10:56.937Z,905
2016-10-22T13:12:08.837Z,890
2016-10-22T13:13:19.978Z,865
2016-10-22T13:14:31.149Z,955
2016-10-22T13:15:42.313Z,1100
2016-10-22T13:16:53.546Z,1240
2016-10-22T13:18:04.758Z,1025
2016-10-22T13:19:15.941Z,850
2016-10-22T13:20:27.136Z,920
2016-10-22T13:21:38.330Z,865
2016-10-22T13:22:49.538Z,675
2016-10-22T13:24:00.710Z,810
2016-10-22T13:25:11.908Z,845
2016-10-22T13:26:23.101Z,975
2016-10-22T13:27:34.259Z,1035
2016-10-22T13:28:45.429Z,1130
2016-10-22T13:29:56.583Z,1530
2016-10-22T13:31:07.754Z,2175
2016-10-22T13:32:18.913Z,2240
2016-10-22T13:33:30.084Z,1675
2016-10-22T13:34:41.239Z,1815
2016-10-22T13:35:52.416Z,2315
2016-10-22T13:37:03.589Z,2020
2016-10-22T13:38:14.746Z,2055
2016-10-22T13:39:25.901Z,2195
2016-10-22T13:40:37.054Z,1990
2016-10-22T13:41:48.195Z,1655
2016-10-22T13:42:59.378Z,1585
2016-10-22T13:44:10.552Z,1540
2016-10-22T13:45:21.733Z,2085
2016-10-22T13:46:32.919Z,2140
2016-10-22T13:47:44.095Z,1785
2016-10-22T13:48:55.256Z,1415
2016-10-22T13:50:06.416Z,1115
2016-10-22T13:51:17.596Z,1045
2016-10-22T13:52:28.753Z,1020
2016-10-22T13:53:39.935Z,1210
2016-10-22T13:54:51.097Z,1135
2016-10-22T13:56:02.273Z,1170
2016-10-22T13:57:13.441Z,1180
2016-10-22T13:58:24.636Z,1360
2016-10-22T13:59:35.859Z,1285
2016-10-22T14:00:47.011Z,1315
2016-10-22T14:01:58.171Z,1760
2016-10-22T14:03:09.326Z,2145
2016-10-22T14:04:21.043Z,1870
2016-10-22T14:05:32.204Z,1655
2016-10-22T14:06:43.356Z,1950
2016-10-22T14:07:54.531Z,2405
2016-10-22T14:09:05.709Z,2225
2016-10-22T14:10:16.856Z,2255
2016-10-22T14:11:28.011Z,2410
2016-10-22T14:12:39.151Z,2515
2016-10-22T14:13:50.313Z,2275
2016-10-22T14:15:01.469Z,2430
2016-10-22T14:16:12.618Z,2440
2016-10-22T14:17:23.782Z,2030
2016-10-22T14:18:34.952Z,1805
2016-10-22T14:19:46.132Z,1355
2016-10-22T14:20:57.318Z,1010
2016-10-22T14:22:08.504Z,975
2016-10-22T14:23:19.706Z,940
2016-10-22T14:24:30.897Z,990
2016-10-22T14:25:42.067Z,1080
2016-10-22T14:26:53.266Z,1135
2016-10-22T14:28:04.440Z,1070
2016-10-22T14:29:15.621Z,1105
2016-10-22T14:30:26.778Z,1385
2016-10-22T14:31:37.939Z,1430
2016-10-22T14:32:49.137Z,1570
2016-10-22T14:34:00.330Z,1475
2016-10-22T14:35:11.504Z,1395
2016-10-22T14:36:22.674Z,1340
2016-10-22T14:37:33.842Z,1545
2016-10-22T14:38:45.042Z,1510
2016-10-22T14:39:56.239Z,1490
2016-10-22T14:41:07.420Z,1595
2016-10-22T14:42:18.574Z,1490
2016-10-22T14:43:29.711Z,1585
2016-10-22T14:44:40.872Z,1525
2016-10-22T14:45:52.067Z,1340
2016-10-22T14:47:03.226Z,1370
2016-10-22T14:48:14.376Z,1470
2016-10-22T14:49:25.565Z,1470
2016-10-22T14:50:36.725Z,1490
2016-10-22T14:51:47.877Z,1615
2016-10-22T14:52:59.046Z,1720
2016-10-22T14:54:10.283Z,1705
2016-10-22T14:55:21.443Z,1505
2016-10-22T14:56:32.597Z,1390
2016-10-22T14:57:43.778Z,1555
2016-10-22T14:58:54.951Z,1450
2016-10-22T15:00:06.119Z,1640
2016-10-22T15:01:17.280Z,2010
2016-10-22T15:02:28.453Z,1635
2016-10-22T15:03:39.614Z,1215
2016-10-22T15:04:50.772Z,1220
2016-10-22T15:06:01.927Z,1175
2016-10-22T15:07:13.090Z,1080
2016-10-22T15:08:24.251Z,1120
2016-10-22T15:09:35.409Z,1110
2016-10-22T15:10:46.581Z,1240
2016-10-22T15:11:57.743Z,1515
2016-10-22T15:13:08.952Z,1600
2016-10-22T15:14:20.116Z,1755
2016-10-22T15:15:31.269Z,1915
2016-10-22T15:16:42.441Z,1500
2016-10-22T15:17:53.633Z,1430
2016-10-22T15:19:04.797Z,1420
2016-10-22T15:20:15.982Z,1125
2016-10-22T15:21:27.151Z,990
2016-10-22T15:22:38.295Z,910
2016-10-22T15:23:49.470Z,925
2016-10-22T15:25:00.622Z,1030
2016-10-22T15:26:11.783Z,975
2016-10-22T15:27:22.935Z,945
2016-10-22T15:28:34.106Z,945
2016-10-22T15:29:45.268Z,915
2016-10-22T15:30:56.440Z,805
2016-10-22T15:32:07.613Z,825
2016-10-22T15:33:18.773Z,895
2016-10-22T15:34:29.939Z,1075
2016-10-22T15:35:41.109Z,950
2016-10-22T15:36:52.293Z,870
2016-10-22T15:38:03.465Z,980
2016-10-22T15:39:14.636Z,1105
2016-10-22T15:40:25.806Z,1250
2016-10-22T15:41:36.968Z,1105
2016-10-22T15:42:48.130Z,1280
2016-10-22T15:43:59.283Z,1655
2016-10-22T15:45:11.463Z,1690
2016-10-22T15:46:22.900Z,1665
2016-10-22T15:47:35.299Z,1515
2016-10-22T15:48:46.456Z,1335
2016-10-22T15:49:57.608Z,1145
2016-10-22T15:51:08.774Z,980
2016-10-22T15:52:19.982Z,770
2016-10-22T15:53:31.179Z,740
2016-10-22T15:54:42.376Z,805
2016-10-22T15:55:53.554Z,855
2016-10-22T15:57:04.724Z,930
2016-10-22T15:58:15.889Z,880
2016-10-22T15:59:27.030Z,875
2016-10-22T16:00:38.196Z,885
2016-10-22T16:01:49.347Z,1005
2016-10-22T16:03:00.515Z,1050
2016-10-22T16:04:11.652Z,1010
2016-10-22T16:05:22.835Z,955
2016-10-22T16:06:34.003Z,865
2016-10-22T16:07:45.183Z,1000
2016-10-22T16:08:56.351Z,1260
2016-10-22T16:10:07.565Z,1435
2016-10-22T16:11:18.732Z,1235
2016-10-22T16:12:29.917Z,1165
2016-10-22T16:13:41.083Z,1225
2016-10-22T16:14:52.257Z,1255
2016-10-22T16:16:03.427Z,1135
2016-10-22T16:17:14.585Z,1050
2016-10-22T16:18:25.758Z,895
2016-10-22T16:19:36.936Z,850
2016-10-22T16:20:48.107Z,845
2016-10-22T16:21:59.258Z,805
2016-10-22T16:23:10.479Z,795
2016-10-22T16:24:21.631Z,880
2016-10-22T16:25:32.793Z,905
2016-10-22T16:26:43.950Z,1005
2016-10-22T16:27:55.724Z,1115
2016-10-22T16:29:06.883Z,1105
2016-10-22T16:30:18.037Z,980
2016-10-22T16:31:29.203Z,910
2016-10-22T16:32:40.363Z,840
2016-10-22T16:33:51.540Z,875
2016-10-22T16:35:02.720Z,890
2016-10-22T16:36:13.928Z,830
2016-10-22T16:37:25.060Z,790
2016-10-22T16:38:36.234Z,730
2016-10-22T16:39:47.448Z,740
2016-10-22T16:40:58.645Z,735
2016-10-22T16:42:09.795Z,630
2016-10-22T16:43:20.963Z,590
2016-10-22T16:44:32.113Z,555
2016-10-22T16:45:43.293Z,515
2016-10-22T16:46:54.443Z,550
2016-10-22T16:48:05.654Z,620